PWSweather.com
Personal Weather Stations
Station Observations
MENWDWX1
Menstrie, ScotlandGB

MenstrieScotlandGB

Lat: 56.148322, Lon: -3.85483

Elevation: 62

Station Type: Davis Vantage Pro 2

High Low Average
Temperature 40.0°F4.4°C 27.2°F-2.7°C 37.2°F2.9°C
Dew Point 32.8°F0.4°C 21.2°F-6.0°C 28.1°F-2.2°C
Winds 24.2 mph 38.9 kmh Calm Calm 9.0 mph E14.5 kmh E
Wind Gusts 34.5 mph55.5 kmh -- 14.0 mph22.5 kmh
Humidity 78% 58% 70%
Pressure 30.39 in1029.1 mb 29.67 in1004.7 mb -
Precipitation 0.01 in0.3 mm - -
Hour Temp Dew Point Humidity Winds Wind Gusts Pressure Precip Precip Rate Daily Precip Total
12:00 AM 39.5°F4.2°C 32.6°F0.3°C 76% 18.4 mph NE29.6 kmh NE 32.2 mph51.8 kmh 29.67 in1004.7 mb - 0.00 in0.0 mm 0.00 in0.0 mm
12:05 AM 39.6°F4.2°C 32.7°F0.4°C 76% 16.1 mph NE25.9 kmh NE 23.0 mph37.0 kmh 29.67 in1004.7 mb - 0.00 in0.0 mm 0.00 in0.0 mm
12:10 AM 39.6°F4.2°C 32.7°F0.4°C 76% 17.3 mph NE27.8 kmh NE 27.6 mph44.4 kmh 29.67 in1004.7 mb - 0.00 in0.0 mm 0.00 in0.0 mm
12:15 AM 39.6°F4.2°C 32.7°F0.4°C 76% 18.4 mph NE29.6 kmh NE 28.8 mph46.3 kmh 29.67 in1004.7 mb - 0.00 in0.0 mm 0.00 in0.0 mm
12:20 AM 39.7°F4.3°C 32.7°F0.4°C 76% 19.6 mph NNE31.5 kmh NNE 27.6 mph44.4 kmh 29.67 in1004.7 mb - 0.00 in0.0 mm 0.00 in0.0 mm
12:25 AM 39.6°F4.2°C 32.7°F0.4°C 76% 19.6 mph NE31.5 kmh NE 26.5 mph42.6 kmh 29.68 in1005.1 mb - 0.00 in0.0 mm 0.00 in0.0 mm
12:30 AM 39.6°F4.2°C 32.7°F0.4°C 76% 24.2 mph NE38.9 kmh NE 32.2 mph51.8 kmh 29.68 in1005.1 mb - 0.00 in0.0 mm 0.00 in0.0 mm
12:35 AM 39.6°F4.2°C 32.7°F0.4°C 76% 20.7 mph NE33.3 kmh NE 32.2 mph51.8 kmh 29.68 in1005.1 mb - 0.00 in0.0 mm 0.00 in0.0 mm
12:40 AM 39.6°F4.2°C 32.7°F0.4°C 76% 16.1 mph NE25.9 kmh NE 26.5 mph42.6 kmh 29.68 in1005.1 mb - 0.00 in0.0 mm 0.00 in0.0 mm
12:45 AM 39.5°F4.2°C 32.6°F0.3°C 76% 17.3 mph NNE27.8 kmh NNE 26.5 mph42.6 kmh 29.69 in1005.4 mb - 0.00 in0.0 mm 0.00 in0.0 mm
12:50 AM 39.6°F4.2°C 32.7°F0.4°C 76% 18.4 mph NE29.6 kmh NE 28.8 mph46.3 kmh 29.68 in1005.1 mb - 0.00 in0.0 mm 0.00 in0.0 mm
12:55 AM 39.6°F4.2°C 32.7°F0.4°C 76% 23.0 mph NE37.0 kmh NE 34.5 mph55.5 kmh 29.69 in1005.4 mb - 0.00 in0.0 mm 0.00 in0.0 mm
01:00 AM 39.6°F4.2°C 32.7°F0.4°C 76% 15.0 mph NE24.1 kmh NE 21.9 mph35.2 kmh 29.69 in1005.4 mb - 0.00 in0.0 mm 0.00 in0.0 mm
01:05 AM 39.7°F4.3°C 32.8°F0.4°C 76% 17.3 mph NE27.8 kmh NE 28.8 mph46.3 kmh 29.69 in1005.4 mb - 0.00 in0.0 mm 0.00 in0.0 mm
01:10 AM 39.7°F4.3°C 32.8°F0.4°C 76% 19.6 mph NE31.5 kmh NE 31.1 mph50.1 kmh 29.70 in1005.8 mb - 0.00 in0.0 mm 0.00 in0.0 mm
01:15 AM 39.8°F4.3°C 32.5°F0.3°C 75% 19.6 mph NE31.5 kmh NE 31.1 mph50.1 kmh 29.70 in1005.8 mb - 0.00 in0.0 mm 0.00 in0.0 mm
01:20 AM 40.0°F4.4°C 32.7°F0.4°C 75% 17.3 mph NE27.8 kmh NE 31.1 mph50.1 kmh 29.70 in1005.8 mb - 0.00 in0.0 mm 0.00 in0.0 mm
01:25 AM 40.0°F4.4°C 32.7°F0.4°C 75% 12.7 mph NE20.4 kmh NE 31.1 mph50.1 kmh 29.71 in1006.1 mb - 0.00 in0.0 mm 0.00 in0.0 mm
01:30 AM 39.7°F4.3°C 32.4°F0.2°C 75% 17.3 mph NE27.8 kmh NE 24.2 mph38.9 kmh 29.71 in1006.1 mb - 0.00 in0.0 mm 0.00 in0.0 mm
01:35 AM 39.3°F4.1°C 32.4°F0.2°C 76% 15.0 mph NE24.1 kmh NE 24.2 mph38.9 kmh 29.72 in1006.4 mb - 0.00 in0.0 mm 0.00 in0.0 mm
01:40 AM 39.2°F4.0°C 32.3°F0.2°C 76% 12.7 mph NE20.4 kmh NE 19.6 mph31.5 kmh 29.72 in1006.4 mb - 0.00 in0.0 mm 0.00 in0.0 mm
01:45 AM 39.3°F4.1°C 32.4°F0.2°C 76% 17.3 mph NE27.8 kmh NE 26.5 mph42.6 kmh 29.72 in1006.4 mb - 0.00 in0.0 mm 0.00 in0.0 mm
01:50 AM 39.4°F4.1°C 32.5°F0.3°C 76% 15.0 mph NE24.1 kmh NE 24.2 mph38.9 kmh 29.73 in1006.8 mb - 0.00 in0.0 mm 0.00 in0.0 mm
01:55 AM 39.1°F3.9°C 32.2°F0.1°C 76% 11.5 mph NE18.5 kmh NE 19.6 mph31.5 kmh 29.73 in1006.8 mb - 0.00 in0.0 mm 0.00 in0.0 mm
02:00 AM 39.1°F3.9°C 32.2°F0.1°C 76% 16.1 mph NE25.9 kmh NE 27.6 mph44.4 kmh 29.73 in1006.8 mb - 0.00 in0.0 mm 0.00 in0.0 mm
02:05 AM 39.3°F4.1°C 32.4°F0.2°C 76% 13.8 mph NE22.2 kmh NE 17.3 mph27.8 kmh 29.73 in1006.8 mb - 0.00 in0.0 mm 0.00 in0.0 mm
02:10 AM 39.4°F4.1°C 32.5°F0.3°C 76% 16.1 mph NE25.9 kmh NE 23.0 mph37.0 kmh 29.73 in1006.8 mb - 0.00 in0.0 mm 0.00 in0.0 mm
02:15 AM 39.4°F4.1°C 32.5°F0.3°C 76% 16.1 mph NE25.9 kmh NE 26.5 mph42.6 kmh 29.73 in1006.8 mb - 0.00 in0.0 mm 0.00 in0.0 mm
02:20 AM 39.3°F4.1°C 32.4°F0.2°C 76% 16.1 mph NE25.9 kmh NE 24.2 mph38.9 kmh 29.73 in1006.8 mb - 0.00 in0.0 mm 0.00 in0.0 mm
02:25 AM 39.2°F4.0°C 32.3°F0.2°C 76% 18.4 mph NE29.6 kmh NE 25.3 mph40.7 kmh 29.74 in1007.1 mb - 0.00 in0.0 mm 0.00 in0.0 mm
02:30 AM 39.2°F4.0°C 32.3°F0.2°C 76% 18.4 mph NE29.6 kmh NE 29.9 mph48.1 kmh 29.75 in1007.5 mb - 0.00 in0.0 mm 0.00 in0.0 mm
02:35 AM 39.3°F4.1°C 32.4°F0.2°C 76% 17.3 mph NE27.8 kmh NE 27.6 mph44.4 kmh 29.75 in1007.5 mb - 0.00 in0.0 mm 0.00 in0.0 mm
02:40 AM 39.3°F4.1°C 32.4°F0.2°C 76% 15.0 mph NE24.1 kmh NE 19.6 mph31.5 kmh 29.75 in1007.5 mb - 0.00 in0.0 mm 0.00 in0.0 mm
02:45 AM 39.3°F4.1°C 32.3°F0.2°C 76% 20.7 mph NE33.3 kmh NE 27.6 mph44.4 kmh 29.76 in1007.8 mb - 0.00 in0.0 mm 0.00 in0.0 mm
02:50 AM 39.2°F4.0°C 32.3°F0.2°C 76% 17.3 mph NE27.8 kmh NE 28.8 mph46.3 kmh 29.76 in1007.8 mb - 0.00 in0.0 mm 0.00 in0.0 mm
02:55 AM 39.1°F3.9°C 32.2°F0.1°C 76% 12.7 mph NE20.4 kmh NE 19.6 mph31.5 kmh 29.77 in1008.1 mb - 0.00 in0.0 mm 0.00 in0.0 mm
03:00 AM 39.0°F3.9°C 32.1°F0.1°C 76% 13.8 mph NE22.2 kmh NE 21.9 mph35.2 kmh 29.77 in1008.1 mb - 0.00 in0.0 mm 0.00 in0.0 mm
03:05 AM 39.0°F3.9°C 32.1°F0.1°C 76% 15.0 mph NE24.1 kmh NE 26.5 mph42.6 kmh 29.77 in1008.1 mb - 0.00 in0.0 mm 0.00 in0.0 mm
03:10 AM 39.1°F3.9°C 32.2°F0.1°C 76% 12.7 mph NE20.4 kmh NE 23.0 mph37.0 kmh 29.78 in1008.5 mb - 0.00 in0.0 mm 0.00 in0.0 mm
03:15 AM 39.1°F3.9°C 32.2°F0.1°C 76% 13.8 mph NNE22.2 kmh NNE 20.7 mph33.3 kmh 29.78 in1008.5 mb - 0.00 in0.0 mm 0.00 in0.0 mm
03:20 AM 39.2°F4.0°C 32.3°F0.2°C 76% 15.0 mph NE24.1 kmh NE 24.2 mph38.9 kmh 29.79 in1008.8 mb - 0.00 in0.0 mm 0.00 in0.0 mm
03:25 AM 39.3°F4.1°C 32.4°F0.2°C 76% 17.3 mph NE27.8 kmh NE 23.0 mph37.0 kmh 29.79 in1008.8 mb - 0.00 in0.0 mm 0.00 in0.0 mm
03:30 AM 39.3°F4.1°C 32.4°F0.2°C 76% 17.3 mph NE27.8 kmh NE 28.8 mph46.3 kmh 29.79 in1008.8 mb - 0.00 in0.0 mm 0.00 in0.0 mm
03:35 AM 39.2°F4.0°C 32.3°F0.2°C 76% 15.0 mph NE24.1 kmh NE 24.2 mph38.9 kmh 29.80 in1009.1 mb - 0.00 in0.0 mm 0.00 in0.0 mm
03:40 AM 39.3°F4.1°C 32.4°F0.2°C 76% 17.3 mph NE27.8 kmh NE 26.5 mph42.6 kmh 29.80 in1009.1 mb - 0.00 in0.0 mm 0.00 in0.0 mm
03:45 AM 39.4°F4.1°C 32.1°F0.1°C 75% 18.4 mph NE29.6 kmh NE 23.0 mph37.0 kmh 29.81 in1009.5 mb - 0.00 in0.0 mm 0.00 in0.0 mm
03:50 AM 39.4°F4.1°C 32.5°F0.3°C 76% 17.3 mph NE27.8 kmh NE 25.3 mph40.7 kmh 29.81 in1009.5 mb - 0.00 in0.0 mm 0.00 in0.0 mm
03:55 AM 39.5°F4.2°C 32.2°F0.1°C 75% 17.3 mph NE27.8 kmh NE 29.9 mph48.1 kmh 29.81 in1009.5 mb - 0.00 in0.0 mm 0.00 in0.0 mm
04:00 AM 39.6°F4.2°C 32.3°F0.2°C 75% 9.2 mph NE14.8 kmh NE 19.6 mph31.5 kmh 29.82 in1009.8 mb - 0.00 in0.0 mm 0.00 in0.0 mm
04:05 AM 39.4°F4.1°C 32.1°F0.1°C 75% 10.4 mph NE16.7 kmh NE 15.0 mph24.1 kmh 29.82 in1009.8 mb - 0.00 in0.0 mm 0.00 in0.0 mm
04:10 AM 39.3°F4.1°C 32.0°F0.0°C 75% 10.4 mph NNE16.7 kmh NNE 24.2 mph38.9 kmh 29.82 in1009.8 mb - 0.00 in0.0 mm 0.00 in0.0 mm
04:15 AM 39.3°F4.1°C 32.0°F0.0°C 75% 11.5 mph NE18.5 kmh NE 17.3 mph27.8 kmh 29.83 in1010.2 mb - 0.00 in0.0 mm 0.00 in0.0 mm
04:20 AM 39.4°F4.1°C 32.1°F0.1°C 75% 10.4 mph NE16.7 kmh NE 19.6 mph31.5 kmh 29.83 in1010.2 mb - 0.00 in0.0 mm 0.00 in0.0 mm
04:25 AM 39.3°F4.1°C 32.0°F0.0°C 75% 10.4 mph NE16.7 kmh NE 21.9 mph35.2 kmh 29.84 in1010.5 mb - 0.00 in0.0 mm 0.00 in0.0 mm
04:30 AM 39.2°F4.0°C 31.9°F-0.1°C 75% 16.1 mph NE25.9 kmh NE 21.9 mph35.2 kmh 29.84 in1010.5 mb - 0.00 in0.0 mm 0.00 in0.0 mm
04:35 AM 39.3°F4.1°C 31.7°F-0.2°C 74% 12.7 mph NE20.4 kmh NE 16.1 mph25.9 kmh 29.84 in1010.5 mb - 0.00 in0.0 mm 0.00 in0.0 mm
04:40 AM 39.2°F4.0°C 31.9°F-0.1°C 75% 11.5 mph NE18.5 kmh NE 17.3 mph27.8 kmh 29.85 in1010.8 mb - 0.00 in0.0 mm 0.00 in0.0 mm
04:45 AM 39.0°F3.9°C 31.7°F-0.2°C 75% 11.5 mph NE18.5 kmh NE 19.6 mph31.5 kmh 29.85 in1010.8 mb - 0.00 in0.0 mm 0.00 in0.0 mm
04:50 AM 39.1°F3.9°C 31.5°F-0.3°C 74% 15.0 mph NNE24.1 kmh NNE 26.5 mph42.6 kmh 29.85 in1010.8 mb - 0.00 in0.0 mm 0.00 in0.0 mm
04:55 AM 39.2°F4.0°C 31.6°F-0.2°C 74% 13.8 mph NE22.2 kmh NE 23.0 mph37.0 kmh 29.85 in1010.8 mb - 0.00 in0.0 mm 0.00 in0.0 mm
05:00 AM 39.1°F3.9°C 31.5°F-0.3°C 74% 12.7 mph NE20.4 kmh NE 19.6 mph31.5 kmh 29.86 in1011.2 mb - 0.00 in0.0 mm 0.00 in0.0 mm
05:05 AM 39.0°F3.9°C 31.4°F-0.3°C 74% 9.2 mph NE14.8 kmh NE 21.9 mph35.2 kmh 29.86 in1011.2 mb - 0.00 in0.0 mm 0.00 in0.0 mm
05:10 AM 38.8°F3.8°C 31.6°F-0.2°C 75% 11.5 mph NE18.5 kmh NE 18.4 mph29.6 kmh 29.87 in1011.5 mb - 0.00 in0.0 mm 0.00 in0.0 mm
05:15 AM 38.9°F3.8°C 31.6°F-0.2°C 75% 11.5 mph NE18.5 kmh NE 15.0 mph24.1 kmh 29.87 in1011.5 mb - 0.00 in0.0 mm 0.00 in0.0 mm
05:20 AM 39.1°F3.9°C 31.5°F-0.3°C 74% 13.8 mph NE22.2 kmh NE 17.3 mph27.8 kmh 29.88 in1011.9 mb - 0.00 in0.0 mm 0.00 in0.0 mm
05:25 AM 38.9°F3.8°C 31.3°F-0.4°C 74% 12.7 mph NE20.4 kmh NE 18.4 mph29.6 kmh 29.88 in1011.9 mb - 0.00 in0.0 mm 0.00 in0.0 mm
05:30 AM 38.9°F3.8°C 31.3°F-0.4°C 74% 18.4 mph NE29.6 kmh NE 26.5 mph42.6 kmh 29.88 in1011.9 mb - 0.00 in0.0 mm 0.00 in0.0 mm
05:35 AM 39.1°F3.9°C 31.5°F-0.3°C 74% 10.4 mph NE16.7 kmh NE 20.7 mph33.3 kmh 29.89 in1012.2 mb - 0.00 in0.0 mm 0.00 in0.0 mm
05:40 AM 39.1°F3.9°C 31.5°F-0.3°C 74% 12.7 mph NE20.4 kmh NE 19.6 mph31.5 kmh 29.89 in1012.2 mb - 0.00 in0.0 mm 0.00 in0.0 mm
05:45 AM 38.9°F3.8°C 31.3°F-0.4°C 74% 10.4 mph NNE16.7 kmh NNE 15.0 mph24.1 kmh 29.90 in1012.5 mb - 0.00 in0.0 mm 0.00 in0.0 mm
05:50 AM 38.9°F3.8°C 31.3°F-0.4°C 74% 10.4 mph NE16.7 kmh NE 17.3 mph27.8 kmh 29.90 in1012.5 mb - 0.00 in0.0 mm 0.00 in0.0 mm
05:55 AM 38.7°F3.7°C 31.1°F-0.5°C 74% 10.4 mph NNE16.7 kmh NNE 16.1 mph25.9 kmh 29.91 in1012.9 mb - 0.00 in0.0 mm 0.00 in0.0 mm
06:00 AM 38.7°F3.7°C 31.5°F-0.3°C 75% 8.1 mph NE13.0 kmh NE 17.3 mph27.8 kmh 29.91 in1012.9 mb - 0.00 in0.0 mm 0.00 in0.0 mm
06:05 AM 38.6°F3.7°C 31.4°F-0.3°C 75% 12.7 mph NE20.4 kmh NE 19.6 mph31.5 kmh 29.91 in1012.9 mb - 0.00 in0.0 mm 0.00 in0.0 mm
06:10 AM 38.7°F3.7°C 31.5°F-0.3°C 75% 15.0 mph NE24.1 kmh NE 21.9 mph35.2 kmh 29.91 in1012.9 mb - 0.00 in0.0 mm 0.00 in0.0 mm
06:15 AM 38.9°F3.8°C 31.6°F-0.2°C 75% 11.5 mph NE18.5 kmh NE 16.1 mph25.9 kmh 29.91 in1012.9 mb - 0.00 in0.0 mm 0.00 in0.0 mm
06:20 AM 38.8°F3.8°C 31.6°F-0.2°C 75% 11.5 mph NE18.5 kmh NE 18.4 mph29.6 kmh 29.92 in1013.2 mb - 0.00 in0.0 mm 0.00 in0.0 mm
06:25 AM 38.8°F3.8°C 31.5°F-0.3°C 75% 12.7 mph NE20.4 kmh NE 17.3 mph27.8 kmh 29.92 in1013.2 mb - 0.00 in0.0 mm 0.00 in0.0 mm
06:30 AM 38.7°F3.7°C 31.4°F-0.3°C 75% 9.2 mph NE14.8 kmh NE 17.3 mph27.8 kmh 29.93 in1013.5 mb - 0.00 in0.0 mm 0.00 in0.0 mm
06:35 AM 38.4°F3.6°C 31.5°F-0.3°C 76% 13.8 mph NE22.2 kmh NE 17.3 mph27.8 kmh 29.93 in1013.5 mb - 0.00 in0.0 mm 0.00 in0.0 mm
06:40 AM 38.2°F3.4°C 31.3°F-0.4°C 76% 11.5 mph NNE18.5 kmh NNE 15.0 mph24.1 kmh 29.93 in1013.5 mb - 0.00 in0.0 mm 0.00 in0.0 mm
06:45 AM 37.9°F3.3°C 31.0°F-0.6°C 76% 9.2 mph NE14.8 kmh NE 12.7 mph20.4 kmh 29.94 in1013.9 mb - 0.00 in0.0 mm 0.00 in0.0 mm
06:50 AM 37.7°F3.2°C 30.8°F-0.7°C 76% 10.4 mph NE16.7 kmh NE 13.8 mph22.2 kmh 29.94 in1013.9 mb - 0.00 in0.0 mm 0.00 in0.0 mm
06:55 AM 37.8°F3.2°C 30.6°F-0.8°C 75% 11.5 mph NE18.5 kmh NE 18.4 mph29.6 kmh 29.94 in1013.9 mb - 0.00 in0.0 mm 0.00 in0.0 mm
07:00 AM 37.9°F3.3°C 30.7°F-0.7°C 75% 12.7 mph NE20.4 kmh NE 19.6 mph31.5 kmh 29.94 in1013.9 mb - 0.00 in0.0 mm 0.00 in0.0 mm
07:05 AM 37.8°F3.2°C 30.5°F-0.8°C 75% 12.7 mph NNE20.4 kmh NNE 21.9 mph35.2 kmh 29.95 in1014.2 mb - 0.00 in0.0 mm 0.00 in0.0 mm
07:10 AM 37.6°F3.1°C 30.4°F-0.9°C 75% 11.5 mph NE18.5 kmh NE 18.4 mph29.6 kmh 29.95 in1014.2 mb - 0.00 in0.0 mm 0.00 in0.0 mm
07:15 AM 37.6°F3.1°C 30.4°F-0.9°C 75% 8.1 mph NNE13.0 kmh NNE 13.8 mph22.2 kmh 29.95 in1014.2 mb - 0.00 in0.0 mm 0.00 in0.0 mm
07:20 AM 37.8°F3.2°C 30.3°F-0.9°C 74% 11.5 mph NNE18.5 kmh NNE 17.3 mph27.8 kmh 29.96 in1014.6 mb - 0.00 in0.0 mm 0.00 in0.0 mm
07:25 AM 37.8°F3.2°C 30.3°F-0.9°C 74% 13.8 mph NE22.2 kmh NE 19.6 mph31.5 kmh 29.96 in1014.6 mb - 0.00 in0.0 mm 0.00 in0.0 mm
07:30 AM 37.8°F3.2°C 30.2°F-1.0°C 74% 10.4 mph NE16.7 kmh NE 19.6 mph31.5 kmh 29.96 in1014.6 mb - 0.00 in0.0 mm 0.00 in0.0 mm
07:35 AM 37.6°F3.1°C 29.7°F-1.3°C 73% 12.7 mph NE20.4 kmh NE 17.3 mph27.8 kmh 29.97 in1014.9 mb - 0.00 in0.0 mm 0.00 in0.0 mm
07:40 AM 37.6°F3.1°C 29.4°F-1.4°C 72% 9.2 mph NE14.8 kmh NE 16.1 mph25.9 kmh 29.97 in1014.9 mb - 0.00 in0.0 mm 0.00 in0.0 mm
07:45 AM 37.7°F3.2°C 29.5°F-1.4°C 72% 5.8 mph NNE9.3 kmh NNE 11.5 mph18.5 kmh 29.97 in1014.9 mb - 0.00 in0.0 mm 0.00 in0.0 mm
07:50 AM 37.7°F3.2°C 28.8°F-1.8°C 70% 8.1 mph NE13.0 kmh NE 15.0 mph24.1 kmh 29.98 in1015.2 mb - 0.00 in0.0 mm 0.00 in0.0 mm
07:55 AM 37.8°F3.2°C 28.6°F-1.9°C 69% 12.7 mph NNE20.4 kmh NNE 18.4 mph29.6 kmh 29.99 in1015.6 mb - 0.00 in0.0 mm 0.00 in0.0 mm
08:00 AM 38.0°F3.3°C 28.7°F-1.8°C 69% 5.8 mph NE9.3 kmh NE 12.7 mph20.4 kmh 29.99 in1015.6 mb - 0.00 in0.0 mm 0.00 in0.0 mm
08:05 AM 37.9°F3.3°C 28.3°F-2.1°C 68% 6.9 mph NNE11.1 kmh NNE 8.1 mph13.0 kmh 30.00 in1015.9 mb - 0.00 in0.0 mm 0.00 in0.0 mm
08:10 AM 37.9°F3.3°C 28.2°F-2.1°C 68% 11.5 mph NE18.5 kmh NE 19.6 mph31.5 kmh 30.00 in1015.9 mb - 0.00 in0.0 mm 0.00 in0.0 mm
08:15 AM 38.0°F3.3°C 28.0°F-2.2°C 67% 17.3 mph NNE27.8 kmh NNE 26.5 mph42.6 kmh 30.00 in1015.9 mb - 0.00 in0.0 mm 0.00 in0.0 mm
08:20 AM 38.2°F3.4°C 27.8°F-2.3°C 66% 12.7 mph NNE20.4 kmh NNE 15.0 mph24.1 kmh 30.00 in1015.9 mb - 0.00 in0.0 mm 0.00 in0.0 mm
08:25 AM 38.2°F3.4°C 27.8°F-2.3°C 66% 2.3 mph SE3.7 kmh SE 3.5 mph5.6 kmh 30.01 in1016.3 mb - 0.00 in0.0 mm 0.00 in0.0 mm
08:30 AM 38.0°F3.3°C 26.9°F-2.8°C 64% 2.3 mph SE3.7 kmh SE 4.6 mph7.4 kmh 30.01 in1016.3 mb - 0.00 in0.0 mm 0.00 in0.0 mm
08:35 AM 38.1°F3.4°C 27.0°F-2.8°C 64% 6.9 mph ENE11.1 kmh ENE 11.5 mph18.5 kmh 30.01 in1016.3 mb - 0.00 in0.0 mm 0.00 in0.0 mm
08:40 AM 38.3°F3.5°C 27.5°F-2.5°C 65% 9.2 mph ENE14.8 kmh ENE 16.1 mph25.9 kmh 30.02 in1016.6 mb - 0.00 in0.0 mm 0.00 in0.0 mm
08:45 AM 38.4°F3.6°C 28.0°F-2.2°C 66% 11.5 mph ENE18.5 kmh ENE 19.6 mph31.5 kmh 30.02 in1016.6 mb - 0.00 in0.0 mm 0.00 in0.0 mm
08:50 AM 38.4°F3.6°C 27.7°F-2.4°C 65% 15.0 mph E24.1 kmh E 19.6 mph31.5 kmh 30.03 in1016.9 mb - 0.00 in0.0 mm 0.00 in0.0 mm
08:55 AM 38.3°F3.5°C 27.2°F-2.7°C 64% 10.4 mph ENE16.7 kmh ENE 19.6 mph31.5 kmh 30.03 in1016.9 mb - 0.00 in0.0 mm 0.00 in0.0 mm
09:00 AM 38.2°F3.4°C 27.1°F-2.7°C 64% 9.2 mph E14.8 kmh E 13.8 mph22.2 kmh 30.04 in1017.3 mb - 0.00 in0.0 mm 0.00 in0.0 mm
09:05 AM 38.1°F3.4°C 27.0°F-2.8°C 64% 8.1 mph E13.0 kmh E 13.8 mph22.2 kmh 30.04 in1017.3 mb - 0.00 in0.0 mm 0.00 in0.0 mm
09:10 AM 37.9°F3.3°C 26.5°F-3.1°C 63% 3.5 mph NE5.6 kmh NE 6.9 mph11.1 kmh 30.04 in1017.3 mb - 0.00 in0.0 mm 0.00 in0.0 mm
09:15 AM 37.9°F3.3°C 26.1°F-3.3°C 62% 9.2 mph E14.8 kmh E 16.1 mph25.9 kmh 30.04 in1017.3 mb - 0.00 in0.0 mm 0.00 in0.0 mm
09:20 AM 38.2°F3.4°C 25.9°F-3.4°C 61% 5.8 mph NE9.3 kmh NE 13.8 mph22.2 kmh 30.04 in1017.3 mb - 0.00 in0.0 mm 0.00 in0.0 mm
09:25 AM 38.3°F3.5°C 26.4°F-3.1°C 62% 9.2 mph ENE14.8 kmh ENE 16.1 mph25.9 kmh 30.04 in1017.3 mb - 0.00 in0.0 mm 0.00 in0.0 mm
09:30 AM 38.3°F3.5°C 26.4°F-3.1°C 62% 9.2 mph E14.8 kmh E 11.5 mph18.5 kmh 30.04 in1017.3 mb - 0.00 in0.0 mm 0.00 in0.0 mm
09:35 AM 38.3°F3.5°C 26.4°F-3.1°C 62% 12.7 mph E20.4 kmh E 17.3 mph27.8 kmh 30.04 in1017.3 mb - 0.00 in0.0 mm 0.00 in0.0 mm
09:40 AM 38.4°F3.6°C 26.5°F-3.1°C 62% 4.6 mph NE7.4 kmh NE 10.4 mph16.7 kmh 30.05 in1017.6 mb - 0.00 in0.0 mm 0.00 in0.0 mm
09:45 AM 38.3°F3.5°C 26.8°F-2.9°C 63% 5.8 mph NNE9.3 kmh NNE 9.2 mph14.8 kmh 30.05 in1017.6 mb - 0.00 in0.0 mm 0.00 in0.0 mm
09:50 AM 38.3°F3.5°C 26.8°F-2.9°C 63% 10.4 mph ENE16.7 kmh ENE 15.0 mph24.1 kmh 30.05 in1017.6 mb - 0.00 in0.0 mm 0.00 in0.0 mm
09:55 AM 38.5°F3.6°C 26.6°F-3.0°C 62% 15.0 mph ENE24.1 kmh ENE 21.9 mph35.2 kmh 30.06 in1017.9 mb - 0.00 in0.0 mm 0.00 in0.0 mm
10:00 AM 38.6°F3.7°C 26.7°F-2.9°C 62% 16.1 mph E25.9 kmh E 25.3 mph40.7 kmh 30.07 in1018.3 mb - 0.00 in0.0 mm 0.00 in0.0 mm
10:05 AM 38.6°F3.7°C 27.1°F-2.7°C 63% 6.9 mph NE11.1 kmh NE 17.3 mph27.8 kmh 30.07 in1018.3 mb - 0.00 in0.0 mm 0.00 in0.0 mm
10:10 AM 38.4°F3.6°C 26.9°F-2.8°C 63% 12.7 mph ENE20.4 kmh ENE 16.1 mph25.9 kmh 30.07 in1018.3 mb - 0.00 in0.0 mm 0.00 in0.0 mm
10:15 AM 38.3°F3.5°C 26.8°F-2.9°C 63% 4.6 mph E7.4 kmh E 6.9 mph11.1 kmh 30.08 in1018.6 mb - 0.00 in0.0 mm 0.00 in0.0 mm
10:20 AM 38.2°F3.4°C 26.7°F-2.9°C 63% 9.2 mph NE14.8 kmh NE 11.5 mph18.5 kmh 30.08 in1018.6 mb - 0.00 in0.0 mm 0.00 in0.0 mm
10:25 AM 38.3°F3.5°C 26.8°F-2.9°C 63% 10.4 mph ESE16.7 kmh ESE 16.1 mph25.9 kmh 30.08 in1018.6 mb - 0.00 in0.0 mm 0.00 in0.0 mm
10:30 AM 38.4°F3.6°C 26.9°F-2.8°C 63% 2.3 mph NNW3.7 kmh NNW 5.8 mph9.3 kmh 30.08 in1018.6 mb - 0.00 in0.0 mm 0.00 in0.0 mm
10:35 AM 38.2°F3.4°C 27.1°F-2.7°C 64% 3.5 mph NW5.6 kmh NW 10.4 mph16.7 kmh 30.09 in1019.0 mb - 0.00 in0.0 mm 0.00 in0.0 mm
10:40 AM 38.1°F3.4°C 27.0°F-2.8°C 64% 4.6 mph E7.4 kmh E 12.7 mph20.4 kmh 30.09 in1019.0 mb - 0.00 in0.0 mm 0.00 in0.0 mm
10:45 AM 38.2°F3.4°C 26.7°F-2.9°C 63% 5.8 mph NE9.3 kmh NE 10.4 mph16.7 kmh 30.09 in1019.0 mb - 0.00 in0.0 mm 0.00 in0.0 mm
10:50 AM 38.2°F3.4°C 26.7°F-2.9°C 63% 2.3 mph WSW3.7 kmh WSW 3.5 mph5.6 kmh 30.09 in1019.0 mb - 0.00 in0.0 mm 0.00 in0.0 mm
10:55 AM 38.2°F3.4°C 27.1°F-2.7°C 64% 2.3 mph NNW3.7 kmh NNW 3.5 mph5.6 kmh 30.09 in1019.0 mb - 0.00 in0.0 mm 0.00 in0.0 mm
11:00 AM 38.2°F3.4°C 27.1°F-2.7°C 64% 4.6 mph ENE7.4 kmh ENE 8.1 mph13.0 kmh 30.10 in1019.3 mb - 0.00 in0.0 mm 0.00 in0.0 mm
11:05 AM 38.3°F3.5°C 26.8°F-2.9°C 63% 5.8 mph NNE9.3 kmh NNE 13.8 mph22.2 kmh 30.11 in1019.6 mb - 0.00 in0.0 mm 0.00 in0.0 mm
11:10 AM 38.5°F3.6°C 27.4°F-2.6°C 64% 2.3 mph ESE3.7 kmh ESE 4.6 mph7.4 kmh 30.11 in1019.6 mb - 0.00 in0.0 mm 0.00 in0.0 mm
11:15 AM 38.5°F3.6°C 27.4°F-2.6°C 64% 3.5 mph NE5.6 kmh NE 5.8 mph9.3 kmh 30.11 in1019.6 mb - 0.00 in0.0 mm 0.00 in0.0 mm
11:20 AM 38.5°F3.6°C 28.1°F-2.2°C 66% Calm Calm -- 30.12 in1020.0 mb - 0.00 in0.0 mm 0.00 in0.0 mm
11:25 AM 38.4°F3.6°C 27.7°F-2.4°C 65% 1.2 mph S1.9 kmh S 3.5 mph5.6 kmh 30.12 in1020.0 mb - 0.00 in0.0 mm 0.00 in0.0 mm
11:30 AM 38.4°F3.6°C 28.0°F-2.2°C 66% 2.3 mph SSW3.7 kmh SSW 5.8 mph9.3 kmh 30.12 in1020.0 mb - 0.00 in0.0 mm 0.00 in0.0 mm
11:35 AM 38.5°F3.6°C 28.9°F-1.7°C 68% 3.5 mph WNW5.6 kmh WNW 3.5 mph5.6 kmh 30.13 in1020.3 mb - 0.00 in0.0 mm 0.00 in0.0 mm
11:40 AM 38.4°F3.6°C 28.4°F-2.0°C 67% 2.3 mph W3.7 kmh W 3.5 mph5.6 kmh 30.13 in1020.3 mb - 0.00 in0.0 mm 0.00 in0.0 mm
11:45 AM 38.5°F3.6°C 28.8°F-1.8°C 68% 2.3 mph WSW3.7 kmh WSW 3.5 mph5.6 kmh 30.13 in1020.3 mb - 0.00 in0.0 mm 0.00 in0.0 mm
11:50 AM 38.4°F3.6°C 28.4°F-2.0°C 67% Calm Calm -- 30.13 in1020.3 mb - 0.00 in0.0 mm 0.00 in0.0 mm
11:55 AM 38.5°F3.6°C 28.8°F-1.8°C 68% 2.3 mph NE3.7 kmh NE 3.5 mph5.6 kmh 30.13 in1020.3 mb - 0.00 in0.0 mm 0.00 in0.0 mm
12:00 PM 38.4°F3.6°C 28.8°F-1.8°C 68% 4.6 mph NE7.4 kmh NE 6.9 mph11.1 kmh 30.13 in1020.3 mb - 0.00 in0.0 mm 0.00 in0.0 mm
12:05 PM 38.3°F3.5°C 29.0°F-1.7°C 69% 4.6 mph NNE7.4 kmh NNE 6.9 mph11.1 kmh 30.14 in1020.7 mb - 0.00 in0.0 mm 0.00 in0.0 mm
12:10 PM 38.3°F3.5°C 29.0°F-1.7°C 69% 8.1 mph NE13.0 kmh NE 13.8 mph22.2 kmh 30.14 in1020.7 mb - 0.00 in0.0 mm 0.00 in0.0 mm
12:15 PM 38.5°F3.6°C 28.4°F-2.0°C 67% 11.5 mph NNE18.5 kmh NNE 12.7 mph20.4 kmh 30.14 in1020.7 mb - 0.00 in0.0 mm 0.00 in0.0 mm
12:20 PM 38.7°F3.7°C 28.7°F-1.8°C 67% 11.5 mph NNE18.5 kmh NNE 13.8 mph22.2 kmh 30.14 in1020.7 mb - 0.00 in0.0 mm 0.00 in0.0 mm
12:25 PM 38.8°F3.8°C 28.8°F-1.8°C 67% 9.2 mph NNE14.8 kmh NNE 11.5 mph18.5 kmh 30.15 in1021.0 mb - 0.00 in0.0 mm 0.00 in0.0 mm
12:30 PM 39.1°F3.9°C 29.1°F-1.6°C 67% 3.5 mph NE5.6 kmh NE 4.6 mph7.4 kmh 30.15 in1021.0 mb - 0.00 in0.0 mm 0.00 in0.0 mm
12:35 PM 39.5°F4.2°C 28.7°F-1.8°C 65% 6.9 mph ESE11.1 kmh ESE 9.2 mph14.8 kmh 30.15 in1021.0 mb - 0.00 in0.0 mm 0.00 in0.0 mm
12:40 PM 39.8°F4.3°C 28.6°F-1.9°C 64% 5.8 mph NE9.3 kmh NE 11.5 mph18.5 kmh 30.15 in1021.0 mb - 0.00 in0.0 mm 0.00 in0.0 mm
12:45 PM 39.7°F4.3°C 28.5°F-1.9°C 64% 8.1 mph NNE13.0 kmh NNE 10.4 mph16.7 kmh 30.15 in1021.0 mb - 0.00 in0.0 mm 0.00 in0.0 mm
12:50 PM 39.4°F4.1°C 28.6°F-1.9°C 65% 4.6 mph N7.4 kmh N 11.5 mph18.5 kmh 30.15 in1021.0 mb - 0.00 in0.0 mm 0.00 in0.0 mm
12:55 PM 39.3°F4.1°C 28.1°F-2.2°C 64% 5.8 mph ENE9.3 kmh ENE 6.9 mph11.1 kmh 30.16 in1021.3 mb - 0.00 in0.0 mm 0.00 in0.0 mm
01:00 PM 39.3°F4.1°C 27.7°F-2.4°C 63% 6.9 mph NNE11.1 kmh NNE 9.2 mph14.8 kmh 30.15 in1021.0 mb - 0.00 in0.0 mm 0.00 in0.0 mm
01:05 PM 39.4°F4.1°C 27.8°F-2.3°C 63% 6.9 mph N11.1 kmh N 9.2 mph14.8 kmh 30.15 in1021.0 mb - 0.00 in0.0 mm 0.00 in0.0 mm
01:10 PM 39.2°F4.0°C 27.7°F-2.4°C 63% 6.9 mph NNE11.1 kmh NNE 10.4 mph16.7 kmh 30.15 in1021.0 mb - 0.00 in0.0 mm 0.00 in0.0 mm
01:15 PM 39.1°F3.9°C 27.1°F-2.7°C 62% 4.6 mph NNE7.4 kmh NNE 10.4 mph16.7 kmh 30.15 in1021.0 mb - 0.00 in0.0 mm 0.00 in0.0 mm
01:20 PM 38.9°F3.8°C 27.0°F-2.8°C 62% 5.8 mph NE9.3 kmh NE 10.4 mph16.7 kmh 30.16 in1021.3 mb - 0.00 in0.0 mm 0.00 in0.0 mm
01:25 PM 38.8°F3.8°C 26.9°F-2.8°C 62% 4.6 mph NNW7.4 kmh NNW 5.8 mph9.3 kmh 30.16 in1021.3 mb - 0.00 in0.0 mm 0.00 in0.0 mm
01:30 PM 38.7°F3.7°C 27.2°F-2.7°C 63% 4.6 mph NNE7.4 kmh NNE 5.8 mph9.3 kmh 30.16 in1021.3 mb - 0.00 in0.0 mm 0.00 in0.0 mm
01:35 PM 38.6°F3.7°C 27.1°F-2.7°C 63% 2.3 mph NNE3.7 kmh NNE 3.5 mph5.6 kmh 30.16 in1021.3 mb - 0.00 in0.0 mm 0.00 in0.0 mm
01:40 PM 38.6°F3.7°C 27.5°F-2.5°C 64% 2.3 mph N3.7 kmh N 4.6 mph7.4 kmh 30.17 in1021.7 mb - 0.00 in0.0 mm 0.00 in0.0 mm
01:45 PM 38.5°F3.6°C 27.4°F-2.6°C 64% 3.5 mph N5.6 kmh N 5.8 mph9.3 kmh 30.17 in1021.7 mb - 0.00 in0.0 mm 0.00 in0.0 mm
01:50 PM 38.4°F3.6°C 27.7°F-2.4°C 65% 5.8 mph NNE9.3 kmh NNE 8.1 mph13.0 kmh 30.17 in1021.7 mb - 0.00 in0.0 mm 0.00 in0.0 mm
01:55 PM 38.4°F3.6°C 27.7°F-2.4°C 65% 4.6 mph NNE7.4 kmh NNE 4.6 mph7.4 kmh 30.18 in1022.0 mb - 0.00 in0.0 mm 0.00 in0.0 mm
02:00 PM 38.4°F3.6°C 28.0°F-2.2°C 66% 3.5 mph NE5.6 kmh NE 4.6 mph7.4 kmh 30.18 in1022.0 mb - 0.00 in0.0 mm 0.00 in0.0 mm
02:05 PM 38.3°F3.5°C 27.6°F-2.4°C 65% 5.8 mph NNE9.3 kmh NNE 8.1 mph13.0 kmh 30.18 in1022.0 mb - 0.00 in0.0 mm 0.00 in0.0 mm
02:10 PM 38.2°F3.4°C 27.8°F-2.3°C 66% 4.6 mph N7.4 kmh N 8.1 mph13.0 kmh 30.18 in1022.0 mb - 0.00 in0.0 mm 0.00 in0.0 mm
02:15 PM 38.1°F3.4°C 27.7°F-2.4°C 66% 5.8 mph NNW9.3 kmh NNW 10.4 mph16.7 kmh 30.19 in1022.4 mb - 0.00 in0.0 mm 0.00 in0.0 mm
02:20 PM 38.0°F3.3°C 27.6°F-2.4°C 66% 4.6 mph N7.4 kmh N 4.6 mph7.4 kmh 30.19 in1022.4 mb - 0.00 in0.0 mm 0.00 in0.0 mm
02:25 PM 38.0°F3.3°C 27.6°F-2.4°C 66% 4.6 mph NE7.4 kmh NE 6.9 mph11.1 kmh 30.19 in1022.4 mb - 0.00 in0.0 mm 0.00 in0.0 mm
02:30 PM 38.0°F3.3°C 28.0°F-2.2°C 67% 4.6 mph NNE7.4 kmh NNE 6.9 mph11.1 kmh 30.19 in1022.4 mb - 0.00 in0.0 mm 0.00 in0.0 mm
02:35 PM 38.0°F3.3°C 28.0°F-2.2°C 67% 3.5 mph NNE5.6 kmh NNE 4.6 mph7.4 kmh 30.19 in1022.4 mb - 0.00 in0.0 mm 0.00 in0.0 mm
02:40 PM 38.2°F3.4°C 28.5°F-1.9°C 68% 3.5 mph 5.6 kmh 3.5 mph5.6 kmh 30.20 in1022.7 mb - 0.00 in0.0 mm 0.00 in0.0 mm
02:45 PM 38.2°F3.4°C 28.6°F-1.9°C 68% 5.8 mph N9.3 kmh N 9.2 mph14.8 kmh 30.20 in1022.7 mb - 0.00 in0.0 mm 0.00 in0.0 mm
02:50 PM 38.2°F3.4°C 28.2°F-2.1°C 67% 8.1 mph N13.0 kmh N 11.5 mph18.5 kmh 30.20 in1022.7 mb - 0.00 in0.0 mm 0.00 in0.0 mm
02:55 PM 38.0°F3.3°C 28.4°F-2.0°C 68% 5.8 mph N9.3 kmh N 11.5 mph18.5 kmh 30.20 in1022.7 mb - 0.00 in0.0 mm 0.00 in0.0 mm
03:00 PM 37.8°F3.2°C 28.1°F-2.2°C 68% 10.4 mph N16.7 kmh N 12.7 mph20.4 kmh 30.20 in1022.7 mb - 0.01 in0.3 mm 0.01 in0.3 mm
03:05 PM 37.5°F3.1°C 28.2°F-2.1°C 69% 9.2 mph N14.8 kmh N 11.5 mph18.5 kmh 30.20 in1022.7 mb - 0.00 in0.0 mm 0.01 in0.3 mm
03:10 PM 37.3°F2.9°C 28.1°F-2.2°C 69% 9.2 mph NNE14.8 kmh NNE 13.8 mph22.2 kmh 30.21 in1023.0 mb - 0.00 in0.0 mm 0.01 in0.3 mm
03:15 PM 37.1°F2.8°C 28.2°F-2.1°C 70% 8.1 mph NNE13.0 kmh NNE 11.5 mph18.5 kmh 30.21 in1023.0 mb - 0.00 in0.0 mm 0.01 in0.3 mm
03:20 PM 37.0°F2.8°C 28.5°F-1.9°C 71% 8.1 mph NNE13.0 kmh NNE 13.8 mph22.2 kmh 30.21 in1023.0 mb - 0.00 in0.0 mm 0.01 in0.3 mm
03:25 PM 37.0°F2.8°C 27.8°F-2.3°C 69% 6.9 mph NNE11.1 kmh NNE 12.7 mph20.4 kmh 30.21 in1023.0 mb - 0.00 in0.0 mm 0.01 in0.3 mm
03:30 PM 37.2°F2.9°C 27.6°F-2.4°C 68% 5.8 mph NNE9.3 kmh NNE 8.1 mph13.0 kmh 30.22 in1023.4 mb - 0.00 in0.0 mm 0.01 in0.3 mm
03:35 PM 37.3°F2.9°C 27.7°F-2.4°C 68% 6.9 mph N11.1 kmh N 10.4 mph16.7 kmh 30.22 in1023.4 mb - 0.00 in0.0 mm 0.01 in0.3 mm
03:40 PM 37.1°F2.8°C 27.5°F-2.5°C 68% 6.9 mph NNE11.1 kmh NNE 8.1 mph13.0 kmh 30.22 in1023.4 mb - 0.00 in0.0 mm 0.01 in0.3 mm
03:45 PM 36.8°F2.7°C 27.6°F-2.4°C 69% 5.8 mph N9.3 kmh N 8.1 mph13.0 kmh 30.23 in1023.7 mb - 0.00 in0.0 mm 0.01 in0.3 mm
03:50 PM 36.6°F2.6°C 27.4°F-2.6°C 69% 4.6 mph NNE7.4 kmh NNE 5.8 mph9.3 kmh 30.23 in1023.7 mb - 0.00 in0.0 mm 0.01 in0.3 mm
03:55 PM 36.4°F2.4°C 27.5°F-2.5°C 70% 5.8 mph N9.3 kmh N 9.2 mph14.8 kmh 30.23 in1023.7 mb - 0.00 in0.0 mm 0.01 in0.3 mm
04:00 PM 36.1°F2.3°C 27.6°F-2.4°C 71% 5.8 mph N9.3 kmh N 9.2 mph14.8 kmh 30.24 in1024.0 mb - 0.00 in0.0 mm 0.01 in0.3 mm
04:05 PM 35.8°F2.1°C 27.6°F-2.4°C 72% 6.9 mph 11.1 kmh 10.4 mph16.7 kmh 30.24 in1024.0 mb - 0.00 in0.0 mm 0.01 in0.3 mm
04:10 PM 35.4°F1.9°C 27.6°F-2.4°C 73% 5.8 mph N9.3 kmh N 5.8 mph9.3 kmh 30.24 in1024.0 mb - 0.00 in0.0 mm 0.01 in0.3 mm
04:15 PM 35.0°F1.7°C 27.6°F-2.4°C 74% 6.9 mph N11.1 kmh N 9.2 mph14.8 kmh 30.24 in1024.0 mb - 0.00 in0.0 mm 0.01 in0.3 mm
04:20 PM 34.6°F1.4°C 27.2°F-2.7°C 74% 4.6 mph N7.4 kmh N 8.1 mph13.0 kmh 30.24 in1024.0 mb - 0.00 in0.0 mm 0.01 in0.3 mm
04:25 PM 34.3°F1.3°C 27.2°F-2.7°C 75% 4.6 mph N7.4 kmh N 8.1 mph13.0 kmh 30.24 in1024.0 mb - 0.00 in0.0 mm 0.01 in0.3 mm
04:30 PM 34.3°F1.3°C 26.8°F-2.9°C 74% 5.8 mph NNE9.3 kmh NNE 11.5 mph18.5 kmh 30.25 in1024.4 mb - 0.00 in0.0 mm 0.01 in0.3 mm
04:35 PM 34.7°F1.5°C 26.6°F-3.0°C 72% 4.6 mph NNE7.4 kmh NNE 8.1 mph13.0 kmh 30.25 in1024.4 mb - 0.00 in0.0 mm 0.01 in0.3 mm
04:40 PM 35.0°F1.7°C 26.6°F-3.0°C 71% 5.8 mph NNE9.3 kmh NNE 9.2 mph14.8 kmh 30.25 in1024.4 mb - 0.00 in0.0 mm 0.01 in0.3 mm
04:45 PM 35.2°F1.8°C 26.7°F-2.9°C 71% 4.6 mph NNE7.4 kmh NNE 6.9 mph11.1 kmh 30.25 in1024.4 mb - 0.00 in0.0 mm 0.01 in0.3 mm
04:50 PM 35.1°F1.7°C 26.6°F-3.0°C 71% 6.9 mph NE11.1 kmh NE 11.5 mph18.5 kmh 30.25 in1024.4 mb - 0.00 in0.0 mm 0.01 in0.3 mm
04:55 PM 35.2°F1.8°C 26.7°F-2.9°C 71% 4.6 mph NE7.4 kmh NE 10.4 mph16.7 kmh 30.25 in1024.4 mb - 0.00 in0.0 mm 0.01 in0.3 mm
05:00 PM 35.3°F1.8°C 26.8°F-2.9°C 71% 8.1 mph N13.0 kmh N 10.4 mph16.7 kmh 30.25 in1024.4 mb - 0.00 in0.0 mm 0.01 in0.3 mm
05:05 PM 35.4°F1.9°C 27.0°F-2.8°C 71% 8.1 mph N13.0 kmh N 11.5 mph18.5 kmh 30.25 in1024.4 mb - 0.00 in0.0 mm 0.01 in0.3 mm
05:10 PM 35.0°F1.7°C 26.9°F-2.8°C 72% 10.4 mph N16.7 kmh N 15.0 mph24.1 kmh 30.25 in1024.4 mb - 0.00 in0.0 mm 0.01 in0.3 mm
05:15 PM 35.1°F1.7°C 26.6°F-3.0°C 71% 8.1 mph NNE13.0 kmh NNE 11.5 mph18.5 kmh 30.25 in1024.4 mb - 0.00 in0.0 mm 0.01 in0.3 mm
05:20 PM 35.4°F1.9°C 26.6°F-3.0°C 70% 10.4 mph NNE16.7 kmh NNE 13.8 mph22.2 kmh 30.25 in1024.4 mb - 0.00 in0.0 mm 0.01 in0.3 mm
05:25 PM 35.7°F2.1°C 26.5°F-3.1°C 69% 9.2 mph NNE14.8 kmh NNE 11.5 mph18.5 kmh 30.25 in1024.4 mb - 0.00 in0.0 mm 0.01 in0.3 mm
05:30 PM 35.7°F2.1°C 26.5°F-3.1°C 69% 9.2 mph N14.8 kmh N 12.7 mph20.4 kmh 30.26 in1024.7 mb - 0.00 in0.0 mm 0.01 in0.3 mm
05:35 PM 35.8°F2.1°C 26.3°F-3.2°C 68% 10.4 mph N16.7 kmh N 13.8 mph22.2 kmh 30.26 in1024.7 mb - 0.00 in0.0 mm 0.01 in0.3 mm
05:40 PM 35.9°F2.2°C 26.0°F-3.3°C 67% 9.2 mph NNE14.8 kmh NNE 16.1 mph25.9 kmh 30.26 in1024.7 mb - 0.00 in0.0 mm 0.01 in0.3 mm
05:45 PM 35.9°F2.2°C 25.7°F-3.5°C 66% 10.4 mph NNE16.7 kmh NNE 24.2 mph38.9 kmh 30.26 in1024.7 mb - 0.00 in0.0 mm 0.01 in0.3 mm
05:50 PM 36.4°F2.4°C 25.3°F-3.7°C 64% 13.8 mph NNE22.2 kmh NNE 20.7 mph33.3 kmh 30.26 in1024.7 mb - 0.00 in0.0 mm 0.01 in0.3 mm
05:55 PM 37.0°F2.8°C 25.2°F-3.8°C 62% 13.8 mph NNE22.2 kmh NNE 20.7 mph33.3 kmh 30.26 in1024.7 mb - 0.00 in0.0 mm 0.01 in0.3 mm
06:00 PM 37.6°F3.1°C 24.6°F-4.1°C 59% 13.8 mph NE22.2 kmh NE 21.9 mph35.2 kmh 30.26 in1024.7 mb - 0.00 in0.0 mm 0.01 in0.3 mm
06:05 PM 37.9°F3.3°C 24.4°F-4.2°C 58% 15.0 mph NE24.1 kmh NE 21.9 mph35.2 kmh 30.26 in1024.7 mb - 0.00 in0.0 mm 0.01 in0.3 mm
06:10 PM 37.6°F3.1°C 25.4°F-3.7°C 61% 11.5 mph NNE18.5 kmh NNE 13.8 mph22.2 kmh 30.27 in1025.1 mb - 0.00 in0.0 mm 0.01 in0.3 mm
06:15 PM 37.3°F2.9°C 25.8°F-3.4°C 63% 15.0 mph NE24.1 kmh NE 19.6 mph31.5 kmh 30.27 in1025.1 mb - 0.00 in0.0 mm 0.01 in0.3 mm
06:20 PM 37.2°F2.9°C 26.1°F-3.3°C 64% 15.0 mph NNE24.1 kmh NNE 21.9 mph35.2 kmh 30.27 in1025.1 mb - 0.00 in0.0 mm 0.01 in0.3 mm
06:25 PM 37.2°F2.9°C 25.8°F-3.4°C 63% 13.8 mph NNE22.2 kmh NNE 16.1 mph25.9 kmh 30.27 in1025.1 mb - 0.00 in0.0 mm 0.01 in0.3 mm
06:30 PM 37.3°F2.9°C 26.6°F-3.0°C 65% 11.5 mph NNE18.5 kmh NNE 19.6 mph31.5 kmh 30.28 in1025.4 mb - 0.00 in0.0 mm 0.01 in0.3 mm
06:35 PM 37.3°F2.9°C 25.8°F-3.4°C 63% 13.8 mph NNE22.2 kmh NNE 16.1 mph25.9 kmh 30.28 in1025.4 mb - 0.00 in0.0 mm 0.01 in0.3 mm
06:40 PM 37.4°F3.0°C 25.6°F-3.6°C 62% 15.0 mph NE24.1 kmh NE 21.9 mph35.2 kmh 30.28 in1025.4 mb - 0.00 in0.0 mm 0.01 in0.3 mm
06:45 PM 37.4°F3.0°C 26.3°F-3.2°C 64% 12.7 mph NE20.4 kmh NE 25.3 mph40.7 kmh 30.29 in1025.7 mb - 0.00 in0.0 mm 0.01 in0.3 mm
06:50 PM 37.3°F2.9°C 25.8°F-3.4°C 63% 13.8 mph NE22.2 kmh NE 20.7 mph33.3 kmh 30.29 in1025.7 mb - 0.00 in0.0 mm 0.01 in0.3 mm
06:55 PM 37.3°F2.9°C 24.7°F-4.1°C 60% 13.8 mph NE22.2 kmh NE 19.6 mph31.5 kmh 30.29 in1025.7 mb - 0.00 in0.0 mm 0.01 in0.3 mm
07:00 PM 37.5°F3.1°C 24.5°F-4.2°C 59% 12.7 mph NE20.4 kmh NE 20.7 mph33.3 kmh 30.29 in1025.7 mb - 0.00 in0.0 mm 0.01 in0.3 mm
07:05 PM 37.5°F3.1°C 24.8°F-4.0°C 60% 12.7 mph NE20.4 kmh NE 18.4 mph29.6 kmh 30.29 in1025.7 mb - 0.00 in0.0 mm 0.01 in0.3 mm
07:10 PM 37.5°F3.1°C 25.2°F-3.8°C 61% 13.8 mph NE22.2 kmh NE 20.7 mph33.3 kmh 30.30 in1026.1 mb - 0.00 in0.0 mm 0.01 in0.3 mm
07:15 PM 37.4°F3.0°C 25.2°F-3.8°C 61% 9.2 mph NE14.8 kmh NE 19.6 mph31.5 kmh 30.30 in1026.1 mb - 0.00 in0.0 mm 0.01 in0.3 mm
07:20 PM 37.3°F2.9°C 25.5°F-3.6°C 62% 13.8 mph NNE22.2 kmh NNE 23.0 mph37.0 kmh 30.30 in1026.1 mb - 0.00 in0.0 mm 0.01 in0.3 mm
07:25 PM 37.4°F3.0°C 25.6°F-3.6°C 62% 10.4 mph NNE16.7 kmh NNE 19.6 mph31.5 kmh 30.30 in1026.1 mb - 0.00 in0.0 mm 0.01 in0.3 mm
07:30 PM 37.4°F3.0°C 24.8°F-4.0°C 60% 11.5 mph NE18.5 kmh NE 26.5 mph42.6 kmh 30.30 in1026.1 mb - 0.00 in0.0 mm 0.01 in0.3 mm
07:35 PM 37.5°F3.1°C 24.5°F-4.2°C 59% 9.2 mph NNE14.8 kmh NNE 17.3 mph27.8 kmh 30.31 in1026.4 mb - 0.00 in0.0 mm 0.01 in0.3 mm
07:40 PM 37.4°F3.0°C 24.0°F-4.4°C 58% 11.5 mph NNE18.5 kmh NNE 16.1 mph25.9 kmh 30.31 in1026.4 mb - 0.00 in0.0 mm 0.01 in0.3 mm
07:45 PM 37.3°F2.9°C 24.7°F-4.1°C 60% 10.4 mph NE16.7 kmh NE 19.6 mph31.5 kmh 30.31 in1026.4 mb - 0.00 in0.0 mm 0.01 in0.3 mm
07:50 PM 37.4°F3.0°C 24.4°F-4.2°C 59% 10.4 mph NE16.7 kmh NE 15.0 mph24.1 kmh 30.31 in1026.4 mb - 0.00 in0.0 mm 0.01 in0.3 mm
07:55 PM 37.3°F2.9°C 24.7°F-4.1°C 60% 11.5 mph NE18.5 kmh NE 16.1 mph25.9 kmh 30.31 in1026.4 mb - 0.00 in0.0 mm 0.01 in0.3 mm
08:00 PM 37.3°F2.9°C 24.7°F-4.1°C 60% 15.0 mph NE24.1 kmh NE 21.9 mph35.2 kmh 30.32 in1026.8 mb - 0.00 in0.0 mm 0.01 in0.3 mm
08:05 PM 37.3°F2.9°C 25.1°F-3.8°C 61% 8.1 mph NE13.0 kmh NE 15.0 mph24.1 kmh 30.32 in1026.8 mb - 0.00 in0.0 mm 0.01 in0.3 mm
08:10 PM 37.2°F2.9°C 24.6°F-4.1°C 60% 11.5 mph NE18.5 kmh NE 19.6 mph31.5 kmh 30.32 in1026.8 mb - 0.00 in0.0 mm 0.01 in0.3 mm
08:15 PM 37.1°F2.8°C 24.1°F-4.4°C 59% 5.8 mph NE9.3 kmh NE 9.2 mph14.8 kmh 30.33 in1027.1 mb - 0.00 in0.0 mm 0.01 in0.3 mm
08:20 PM 37.0°F2.8°C 24.0°F-4.4°C 59% 6.9 mph NE11.1 kmh NE 15.0 mph24.1 kmh 30.33 in1027.1 mb - 0.00 in0.0 mm 0.01 in0.3 mm
08:25 PM 37.1°F2.8°C 24.1°F-4.4°C 59% 3.5 mph NE5.6 kmh NE 9.2 mph14.8 kmh 30.33 in1027.1 mb - 0.00 in0.0 mm 0.01 in0.3 mm
08:30 PM 36.9°F2.7°C 24.3°F-4.3°C 60% 6.9 mph NE11.1 kmh NE 12.7 mph20.4 kmh 30.33 in1027.1 mb - 0.00 in0.0 mm 0.01 in0.3 mm
08:35 PM 37.1°F2.8°C 24.1°F-4.4°C 59% 8.1 mph NE13.0 kmh NE 11.5 mph18.5 kmh 30.34 in1027.4 mb - 0.00 in0.0 mm 0.01 in0.3 mm
08:40 PM 37.2°F2.9°C 24.2°F-4.3°C 59% 8.1 mph NE13.0 kmh NE 15.0 mph24.1 kmh 30.34 in1027.4 mb - 0.00 in0.0 mm 0.01 in0.3 mm
08:45 PM 37.2°F2.9°C 24.6°F-4.1°C 60% 4.6 mph NE7.4 kmh NE 11.5 mph18.5 kmh 30.34 in1027.4 mb - 0.00 in0.0 mm 0.01 in0.3 mm
08:50 PM 37.2°F2.9°C 24.2°F-4.3°C 59% 6.9 mph N11.1 kmh N 15.0 mph24.1 kmh 30.35 in1027.8 mb - 0.00 in0.0 mm 0.01 in0.3 mm
08:55 PM 36.9°F2.7°C 25.1°F-3.8°C 62% 4.6 mph E7.4 kmh E 10.4 mph16.7 kmh 30.35 in1027.8 mb - 0.00 in0.0 mm 0.01 in0.3 mm
09:00 PM 36.2°F2.3°C 24.8°F-4.0°C 63% 5.8 mph SE9.3 kmh SE 6.9 mph11.1 kmh 30.35 in1027.8 mb - 0.00 in0.0 mm 0.01 in0.3 mm
09:05 PM 35.8°F2.1°C 25.1°F-3.8°C 65% 9.2 mph E14.8 kmh E 13.8 mph22.2 kmh 30.35 in1027.8 mb - 0.00 in0.0 mm 0.01 in0.3 mm
09:10 PM 35.2°F1.8°C 25.0°F-3.9°C 66% 4.6 mph E7.4 kmh E 6.9 mph11.1 kmh 30.35 in1027.8 mb - 0.00 in0.0 mm 0.01 in0.3 mm
09:15 PM 35.4°F1.9°C 25.1°F-3.8°C 66% 3.5 mph SE5.6 kmh SE 6.9 mph11.1 kmh 30.36 in1028.1 mb - 0.00 in0.0 mm 0.01 in0.3 mm
09:20 PM 34.9°F1.6°C 25.4°F-3.7°C 68% 2.3 mph SE3.7 kmh SE 3.5 mph5.6 kmh 30.36 in1028.1 mb - 0.00 in0.0 mm 0.01 in0.3 mm
09:25 PM 34.3°F1.3°C 25.5°F-3.6°C 70% 2.3 mph WSW3.7 kmh WSW 3.5 mph5.6 kmh 30.36 in1028.1 mb - 0.00 in0.0 mm 0.01 in0.3 mm
09:30 PM 33.4°F0.8°C 25.4°F-3.7°C 72% 3.5 mph SSE5.6 kmh SSE 5.8 mph9.3 kmh 30.36 in1028.1 mb - 0.00 in0.0 mm 0.01 in0.3 mm
09:35 PM 33.0°F0.6°C 25.2°F-3.8°C 73% Calm Calm 3.5 mph5.6 kmh 30.37 in1028.4 mb - 0.00 in0.0 mm 0.01 in0.3 mm
09:40 PM 32.5°F0.3°C 25.5°F-3.6°C 75% 1.2 mph SSE1.9 kmh SSE 2.3 mph3.7 kmh 30.37 in1028.4 mb - 0.00 in0.0 mm 0.01 in0.3 mm
09:45 PM 32.1°F0.1°C 25.1°F-3.8°C 75% 1.2 mph SE1.9 kmh SE 4.6 mph7.4 kmh 30.37 in1028.4 mb - 0.00 in0.0 mm 0.01 in0.3 mm
09:50 PM 31.7°F-0.2°C 25.0°F-3.9°C 76% 1.2 mph NE1.9 kmh NE 3.5 mph5.6 kmh 30.37 in1028.4 mb - 0.00 in0.0 mm 0.01 in0.3 mm
09:55 PM 31.6°F-0.2°C 24.9°F-3.9°C 76% 1.2 mph S1.9 kmh S 2.3 mph3.7 kmh 30.37 in1028.4 mb - 0.00 in0.0 mm 0.01 in0.3 mm
10:00 PM 31.6°F-0.2°C 24.9°F-3.9°C 76% 4.6 mph SSE7.4 kmh SSE 5.8 mph9.3 kmh 30.38 in1028.8 mb - 0.00 in0.0 mm 0.01 in0.3 mm
10:05 PM 31.2°F-0.4°C 24.8°F-4.0°C 77% 2.3 mph SSE3.7 kmh SSE 2.3 mph3.7 kmh 30.38 in1028.8 mb - 0.00 in0.0 mm 0.01 in0.3 mm
10:10 PM 30.7°F-0.7°C 24.4°F-4.2°C 77% 2.3 mph SSE3.7 kmh SSE 3.5 mph5.6 kmh 30.38 in1028.8 mb - 0.00 in0.0 mm 0.01 in0.3 mm
10:15 PM 30.5°F-0.8°C 24.1°F-4.4°C 77% Calm Calm -- 30.38 in1028.8 mb - 0.00 in0.0 mm 0.01 in0.3 mm
10:20 PM 30.0°F-1.1°C 23.9°F-4.5°C 78% Calm Calm 1.2 mph1.9 kmh 30.39 in1029.1 mb - 0.00 in0.0 mm 0.01 in0.3 mm
10:25 PM 29.7°F-1.3°C 23.7°F-4.6°C 78% 2.3 mph ENE3.7 kmh ENE 3.5 mph5.6 kmh 30.39 in1029.1 mb - 0.00 in0.0 mm 0.01 in0.3 mm
10:30 PM 30.4°F-0.9°C 24.4°F-4.2°C 78% 3.5 mph SW5.6 kmh SW 5.8 mph9.3 kmh 30.38 in1028.8 mb - 0.00 in0.0 mm 0.01 in0.3 mm
10:35 PM 31.3°F-0.4°C 24.9°F-3.9°C 77% 1.2 mph SW1.9 kmh SW 2.3 mph3.7 kmh 30.38 in1028.8 mb - 0.00 in0.0 mm 0.01 in0.3 mm
10:40 PM 31.2°F-0.4°C 24.8°F-4.0°C 77% 1.2 mph SW1.9 kmh SW 2.3 mph3.7 kmh 30.39 in1029.1 mb - 0.00 in0.0 mm 0.01 in0.3 mm
10:45 PM 30.8°F-0.7°C 24.5°F-4.2°C 77% 1.2 mph WSW1.9 kmh WSW 2.3 mph3.7 kmh 30.39 in1029.1 mb - 0.00 in0.0 mm 0.01 in0.3 mm
10:50 PM 30.5°F-0.8°C 24.2°F-4.3°C 77% 3.5 mph SW5.6 kmh SW 3.5 mph5.6 kmh 30.39 in1029.1 mb - 0.00 in0.0 mm 0.01 in0.3 mm
10:55 PM 29.9°F-1.2°C 23.6°F-4.7°C 77% Calm Calm -- 30.39 in1029.1 mb - 0.00 in0.0 mm 0.01 in0.3 mm
11:00 PM 29.3°F-1.5°C 23.0°F-5.0°C 77% 3.5 mph SW5.6 kmh SW 3.5 mph5.6 kmh 30.39 in1029.1 mb - 0.00 in0.0 mm 0.01 in0.3 mm
11:05 PM 28.7°F-1.8°C 22.7°F-5.2°C 78% 2.3 mph SW3.7 kmh SW 3.5 mph5.6 kmh 30.39 in1029.1 mb - 0.00 in0.0 mm 0.01 in0.3 mm
11:10 PM 28.5°F-1.9°C 22.5°F-5.3°C 78% 1.2 mph SW1.9 kmh SW 2.3 mph3.7 kmh 30.39 in1029.1 mb - 0.00 in0.0 mm 0.01 in0.3 mm
11:15 PM 28.5°F-1.9°C 22.5°F-5.3°C 78% 1.2 mph W1.9 kmh W 3.5 mph5.6 kmh 30.39 in1029.1 mb - 0.00 in0.0 mm 0.01 in0.3 mm
11:20 PM 28.6°F-1.9°C 22.6°F-5.2°C 78% 1.2 mph W1.9 kmh W 2.3 mph3.7 kmh 30.39 in1029.1 mb - 0.00 in0.0 mm 0.01 in0.3 mm
11:25 PM 28.5°F-1.9°C 22.5°F-5.3°C 78% 1.2 mph W1.9 kmh W 2.3 mph3.7 kmh 30.39 in1029.1 mb - 0.00 in0.0 mm 0.01 in0.3 mm
11:30 PM 28.3°F-2.1°C 22.3°F-5.4°C 78% 2.3 mph W3.7 kmh W 3.5 mph5.6 kmh 30.39 in1029.1 mb - 0.00 in0.0 mm 0.01 in0.3 mm
11:35 PM 28.0°F-2.2°C 22.0°F-5.6°C 78% Calm Calm 1.2 mph1.9 kmh 30.39 in1029.1 mb - 0.00 in0.0 mm 0.01 in0.3 mm
11:40 PM 27.9°F-2.3°C 21.9°F-5.6°C 78% 1.2 mph W1.9 kmh W 2.3 mph3.7 kmh 30.39 in1029.1 mb - 0.00 in0.0 mm 0.01 in0.3 mm
11:45 PM 27.6°F-2.4°C 21.7°F-5.7°C 78% 1.2 mph W1.9 kmh W 2.3 mph3.7 kmh 30.39 in1029.1 mb - 0.00 in0.0 mm 0.01 in0.3 mm
11:50 PM 27.4°F-2.6°C 21.4°F-5.9°C 78% Calm Calm -- 30.39 in1029.1 mb - 0.00 in0.0 mm 0.01 in0.3 mm
11:55 PM 27.2°F-2.7°C 21.2°F-6.0°C 78% Calm Calm -- 30.39 in1029.1 mb - 0.00 in0.0 mm 0.01 in0.3 mm